sensor_id;sensor_type;location;lat;lon;timestamp;P1;durP1;ratioP1;P2;durP2;ratioP2
3267;SDS011;1646;52.450;13.326;2023-05-07T00:00:08;13.97;;;11.50;;
3267;SDS011;1646;52.450;13.326;2023-05-07T00:05:08;16.43;;;12.40;;
3267;SDS011;1646;52.450;13.326;2023-05-07T00:10:07;16.43;;;12.13;;
3267;SDS011;1646;52.450;13.326;2023-05-07T00:15:09;15.10;;;12.00;;
3267;SDS011;1646;52.450;13.326;2023-05-07T00:20:08;16.57;;;12.40;;
3267;SDS011;1646;52.450;13.326;2023-05-07T00:25:08;18.10;;;12.30;;
3267;SDS011;1646;52.450;13.326;2023-05-07T00:30:07;15.83;;;12.00;;
3267;SDS011;1646;52.450;13.326;2023-05-07T00:35:07;15.47;;;11.37;;
3267;SDS011;1646;52.450;13.326;2023-05-07T00:40:07;16.00;;;11.00;;
3267;SDS011;1646;52.450;13.326;2023-05-07T00:45:07;12.10;;;9.70;;
3267;SDS011;1646;52.450;13.326;2023-05-07T00:50:07;16.83;;;11.40;;
3267;SDS011;1646;52.450;13.326;2023-05-07T00:55:09;12.60;;;9.97;;
3267;SDS011;1646;52.450;13.326;2023-05-07T01:00:08;12.93;;;9.10;;
3267;SDS011;1646;52.450;13.326;2023-05-07T01:05:10;14.90;;;10.03;;
3267;SDS011;1646;52.450;13.326;2023-05-07T01:10:13;11.87;;;9.10;;
3267;SDS011;1646;52.450;13.326;2023-05-07T01:15:12;15.53;;;9.70;;
3267;SDS011;1646;52.450;13.326;2023-05-07T01:20:11;12.90;;;9.33;;
3267;SDS011;1646;52.450;13.326;2023-05-07T01:25:13;13.63;;;9.67;;
3267;SDS011;1646;52.450;13.326;2023-05-07T01:30:17;16.10;;;9.73;;
3267;SDS011;1646;52.450;13.326;2023-05-07T01:35:19;11.97;;;9.60;;
3267;SDS011;1646;52.450;13.326;2023-05-07T01:40:21;12.00;;;9.53;;
3267;SDS011;1646;52.450;13.326;2023-05-07T01:45:21;13.60;;;10.63;;
3267;SDS011;1646;52.450;13.326;2023-05-07T01:50:19;12.63;;;10.20;;
3267;SDS011;1646;52.450;13.326;2023-05-07T01:55:18;14.60;;;10.97;;
3267;SDS011;1646;52.450;13.326;2023-05-07T02:00:18;14.30;;;10.20;;
3267;SDS011;1646;52.450;13.326;2023-05-07T02:05:17;17.33;;;10.70;;
3267;SDS011;1646;52.450;13.326;2023-05-07T02:10:22;13.57;;;10.40;;
3267;SDS011;1646;52.450;13.326;2023-05-07T02:15:21;13.73;;;10.37;;
3267;SDS011;1646;52.450;13.326;2023-05-07T02:20:21;17.20;;;10.17;;
3267;SDS011;1646;52.450;13.326;2023-05-07T02:25:19;11.43;;;8.93;;
3267;SDS011;1646;52.450;13.326;2023-05-07T02:30:17;13.73;;;10.37;;
3267;SDS011;1646;52.450;13.326;2023-05-07T02:35:22;11.40;;;9.10;;
3267;SDS011;1646;52.450;13.326;2023-05-07T02:40:22;11.00;;;9.67;;
3267;SDS011;1646;52.450;13.326;2023-05-07T02:45:21;14.03;;;9.67;;
3267;SDS011;1646;52.450;13.326;2023-05-07T02:50:23;14.43;;;10.00;;
3267;SDS011;1646;52.450;13.326;2023-05-07T02:55:22;12.20;;;10.70;;
3267;SDS011;1646;52.450;13.326;2023-05-07T03:00:20;13.20;;;9.73;;
3267;SDS011;1646;52.450;13.326;2023-05-07T03:05:30;14.87;;;9.30;;
3267;SDS011;1646;52.450;13.326;2023-05-07T03:10:29;15.07;;;9.03;;
3267;SDS011;1646;52.450;13.326;2023-05-07T03:15:27;15.60;;;10.37;;
3267;SDS011;1646;52.450;13.326;2023-05-07T03:20:26;20.03;;;9.67;;
3267;SDS011;1646;52.450;13.326;2023-05-07T03:25:27;14.07;;;10.13;;
3267;SDS011;1646;52.450;13.326;2023-05-07T03:30:26;14.07;;;9.97;;
3267;SDS011;1646;52.450;13.326;2023-05-07T03:35:25;16.57;;;9.93;;
3267;SDS011;1646;52.450;13.326;2023-05-07T03:40:23;12.53;;;9.13;;
3267;SDS011;1646;52.450;13.326;2023-05-07T03:45:24;13.37;;;9.77;;
3267;SDS011;1646;52.450;13.326;2023-05-07T03:50:37;13.17;;;10.40;;
3267;SDS011;1646;52.450;13.326;2023-05-07T03:55:36;14.47;;;10.07;;
3267;SDS011;1646;52.450;13.326;2023-05-07T04:00:36;13.47;;;10.40;;
3267;SDS011;1646;52.450;13.326;2023-05-07T04:05:52;14.00;;;10.00;;
3267;SDS011;1646;52.450;13.326;2023-05-07T04:10:54;14.03;;;10.53;;
3267;SDS011;1646;52.450;13.326;2023-05-07T04:15:55;14.97;;;10.03;;
3267;SDS011;1646;52.450;13.326;2023-05-07T04:20:55;13.30;;;8.80;;
3267;SDS011;1646;52.450;13.326;2023-05-07T04:25:53;14.60;;;9.67;;
3267;SDS011;1646;52.450;13.326;2023-05-07T04:31:03;11.63;;;8.37;;
3267;SDS011;1646;52.450;13.326;2023-05-07T04:36:04;13.67;;;10.03;;
3267;SDS011;1646;52.450;13.326;2023-05-07T04:41:08;10.13;;;8.17;;
3267;SDS011;1646;52.450;13.326;2023-05-07T04:46:11;10.43;;;8.23;;
3267;SDS011;1646;52.450;13.326;2023-05-07T04:51:11;10.57;;;7.87;;
3267;SDS011;1646;52.450;13.326;2023-05-07T04:56:09;9.17;;;7.63;;
3267;SDS011;1646;52.450;13.326;2023-05-07T05:01:12;20.13;;;8.50;;
3267;SDS011;1646;52.450;13.326;2023-05-07T05:06:11;10.07;;;8.20;;
3267;SDS011;1646;52.450;13.326;2023-05-07T05:11:09;8.93;;;7.40;;
3267;SDS011;1646;52.450;13.326;2023-05-07T05:16:08;10.70;;;7.10;;
3267;SDS011;1646;52.450;13.326;2023-05-07T05:21:08;15.10;;;8.10;;
3267;SDS011;1646;52.450;13.326;2023-05-07T05:26:08;11.50;;;8.20;;
3267;SDS011;1646;52.450;13.326;2023-05-07T05:31:06;10.23;;;7.77;;
3267;SDS011;1646;52.450;13.326;2023-05-07T05:36:06;14.50;;;7.57;;
3267;SDS011;1646;52.450;13.326;2023-05-07T05:41:07;10.53;;;8.00;;
3267;SDS011;1646;52.450;13.326;2023-05-07T05:46:06;11.03;;;7.53;;
3267;SDS011;1646;52.450;13.326;2023-05-07T05:51:05;15.47;;;7.70;;
3267;SDS011;1646;52.450;13.326;2023-05-07T05:56:06;9.83;;;7.17;;
3267;SDS011;1646;52.450;13.326;2023-05-07T06:01:05;8.50;;;6.67;;
3267;SDS011;1646;52.450;13.326;2023-05-07T06:06:05;10.60;;;6.57;;
3267;SDS011;1646;52.450;13.326;2023-05-07T06:11:05;8.17;;;6.70;;
3267;SDS011;1646;52.450;13.326;2023-05-07T06:16:06;7.47;;;6.13;;
3267;SDS011;1646;52.450;13.326;2023-05-07T06:21:06;6.97;;;6.17;;
3267;SDS011;1646;52.450;13.326;2023-05-07T06:26:06;9.30;;;6.67;;
3267;SDS011;1646;52.450;13.326;2023-05-07T06:31:13;7.57;;;5.87;;
3267;SDS011;1646;52.450;13.326;2023-05-07T06:36:16;6.90;;;5.50;;
3267;SDS011;1646;52.450;13.326;2023-05-07T06:41:16;9.73;;;5.67;;
3267;SDS011;1646;52.450;13.326;2023-05-07T06:46:15;9.10;;;6.97;;
3267;SDS011;1646;52.450;13.326;2023-05-07T06:51:14;16.43;;;6.70;;
3267;SDS011;1646;52.450;13.326;2023-05-07T06:56:12;6.77;;;5.90;;
3267;SDS011;1646;52.450;13.326;2023-05-07T07:01:12;5.90;;;5.30;;
3267;SDS011;1646;52.450;13.326;2023-05-07T07:06:12;7.73;;;6.27;;
3267;SDS011;1646;52.450;13.326;2023-05-07T07:11:10;11.30;;;6.83;;
3267;SDS011;1646;52.450;13.326;2023-05-07T07:16:09;8.87;;;6.33;;
3267;SDS011;1646;52.450;13.326;2023-05-07T07:21:09;8.70;;;5.80;;
3267;SDS011;1646;52.450;13.326;2023-05-07T07:26:07;7.63;;;5.77;;
3267;SDS011;1646;52.450;13.326;2023-05-07T07:31:06;6.10;;;5.50;;
3267;SDS011;1646;52.450;13.326;2023-05-07T07:36:05;7.80;;;5.50;;
3267;SDS011;1646;52.450;13.326;2023-05-07T07:41:07;5.27;;;4.77;;
3267;SDS011;1646;52.450;13.326;2023-05-07T07:46:06;11.00;;;4.87;;
3267;SDS011;1646;52.450;13.326;2023-05-07T07:51:05;6.30;;;4.90;;
3267;SDS011;1646;52.450;13.326;2023-05-07T07:56:04;7.97;;;4.43;;
3267;SDS011;1646;52.450;13.326;2023-05-07T08:01:04;5.00;;;4.00;;
3267;SDS011;1646;52.450;13.326;2023-05-07T08:06:03;3.90;;;3.60;;
3267;SDS011;1646;52.450;13.326;2023-05-07T08:11:03;5.60;;;3.93;;
3267;SDS011;1646;52.450;13.326;2023-05-07T08:16:05;4.47;;;3.60;;
3267;SDS011;1646;52.450;13.326;2023-05-07T08:21:05;6.40;;;3.60;;
3267;SDS011;1646;52.450;13.326;2023-05-07T08:26:05;3.67;;;2.97;;
3267;SDS011;1646;52.450;13.326;2023-05-07T08:31:06;3.87;;;3.17;;
3267;SDS011;1646;52.450;13.326;2023-05-07T08:36:07;4.70;;;3.27;;
3267;SDS011;1646;52.450;13.326;2023-05-07T08:41:08;4.80;;;2.87;;
3267;SDS011;1646;52.450;13.326;2023-05-07T08:46:09;5.70;;;3.00;;
3267;SDS011;1646;52.450;13.326;2023-05-07T08:51:12;2.97;;;2.67;;
3267;SDS011;1646;52.450;13.326;2023-05-07T08:56:12;5.77;;;2.80;;
3267;SDS011;1646;52.450;13.326;2023-05-07T09:01:12;3.17;;;2.60;;
3267;SDS011;1646;52.450;13.326;2023-05-07T09:06:15;7.20;;;3.27;;
3267;SDS011;1646;52.450;13.326;2023-05-07T09:11:15;5.90;;;2.73;;
3267;SDS011;1646;52.450;13.326;2023-05-07T09:16:14;5.97;;;3.10;;
3267;SDS011;1646;52.450;13.326;2023-05-07T09:21:14;3.67;;;2.90;;
3267;SDS011;1646;52.450;13.326;2023-05-07T09:26:17;2.70;;;2.00;;
3267;SDS011;1646;52.450;13.326;2023-05-07T09:31:17;2.93;;;2.73;;
3267;SDS011;1646;52.450;13.326;2023-05-07T09:36:18;3.00;;;2.43;;
3267;SDS011;1646;52.450;13.326;2023-05-07T09:41:17;3.03;;;2.30;;
3267;SDS011;1646;52.450;13.326;2023-05-07T09:46:34;3.67;;;3.00;;
3267;SDS011;1646;52.450;13.326;2023-05-07T09:51:45;4.13;;;2.40;;
3267;SDS011;1646;52.450;13.326;2023-05-07T09:56:49;3.90;;;2.40;;
3267;SDS011;1646;52.450;13.326;2023-05-07T10:01:53;4.03;;;3.33;;
3267;SDS011;1646;52.450;13.326;2023-05-07T10:06:58;3.30;;;2.30;;
3267;SDS011;1646;52.450;13.326;2023-05-07T10:12:02;3.60;;;2.70;;
3267;SDS011;1646;52.450;13.326;2023-05-07T10:17:02;4.00;;;2.60;;
3267;SDS011;1646;52.450;13.326;2023-05-07T10:22:02;2.77;;;2.20;;
3267;SDS011;1646;52.450;13.326;2023-05-07T10:27:10;3.83;;;3.17;;
3267;SDS011;1646;52.450;13.326;2023-05-07T10:32:19;3.93;;;2.17;;
3267;SDS011;1646;52.450;13.326;2023-05-07T10:37:39;3.30;;;3.00;;
3267;SDS011;1646;52.450;13.326;2023-05-07T10:42:40;2.30;;;1.80;;
3267;SDS011;1646;52.450;13.326;2023-05-07T10:48:05;2.00;;;1.83;;
3267;SDS011;1646;52.450;13.326;2023-05-07T10:53:27;1.40;;;1.30;;
3267;SDS011;1646;52.450;13.326;2023-05-07T10:58:42;2.30;;;1.50;;
3267;SDS011;1646;52.450;13.326;2023-05-07T11:15:12;1.83;;;1.73;;
3267;SDS011;1646;52.450;13.326;2023-05-07T11:20:13;4.00;;;1.70;;
3267;SDS011;1646;52.450;13.326;2023-05-07T11:25:19;1.83;;;1.73;;
3267;SDS011;1646;52.450;13.326;2023-05-07T11:30:26;2.40;;;1.60;;
3267;SDS011;1646;52.450;13.326;2023-05-07T11:35:26;4.67;;;3.03;;
3267;SDS011;1646;52.450;13.326;2023-05-07T11:40:25;2.10;;;1.90;;
3267;SDS011;1646;52.450;13.326;2023-05-07T11:45:26;3.00;;;2.07;;
3267;SDS011;1646;52.450;13.326;2023-05-07T11:50:24;2.77;;;1.97;;
3267;SDS011;1646;52.450;13.326;2023-05-07T11:55:23;1.87;;;1.77;;
3267;SDS011;1646;52.450;13.326;2023-05-07T12:00:22;4.67;;;1.50;;
3267;SDS011;1646;52.450;13.326;2023-05-07T12:05:22;2.77;;;2.13;;
3267;SDS011;1646;52.450;13.326;2023-05-07T12:10:20;4.17;;;2.80;;
3267;SDS011;1646;52.450;13.326;2023-05-07T12:15:22;5.10;;;1.97;;
3267;SDS011;1646;52.450;13.326;2023-05-07T12:20:21;2.83;;;1.77;;
3267;SDS011;1646;52.450;13.326;2023-05-07T12:25:20;1.53;;;1.43;;
3267;SDS011;1646;52.450;13.326;2023-05-07T12:30:18;2.00;;;1.63;;
3267;SDS011;1646;52.450;13.326;2023-05-07T12:35:16;1.90;;;1.70;;
3267;SDS011;1646;52.450;13.326;2023-05-07T12:40:16;1.70;;;1.53;;
3267;SDS011;1646;52.450;13.326;2023-05-07T12:45:15;2.03;;;1.63;;
3267;SDS011;1646;52.450;13.326;2023-05-07T12:50:15;1.57;;;1.30;;
3267;SDS011;1646;52.450;13.326;2023-05-07T12:55:14;5.33;;;1.43;;
3267;SDS011;1646;52.450;13.326;2023-05-07T13:00:14;1.97;;;1.50;;
3267;SDS011;1646;52.450;13.326;2023-05-07T13:05:13;6.67;;;1.30;;
3267;SDS011;1646;52.450;13.326;2023-05-07T13:10:11;1.87;;;1.60;;
3267;SDS011;1646;52.450;13.326;2023-05-07T13:15:10;3.00;;;1.70;;
3267;SDS011;1646;52.450;13.326;2023-05-07T13:20:10;2.73;;;1.27;;
3267;SDS011;1646;52.450;13.326;2023-05-07T13:25:10;1.50;;;1.40;;
3267;SDS011;1646;52.450;13.326;2023-05-07T13:30:08;2.00;;;1.20;;
3267;SDS011;1646;52.450;13.326;2023-05-07T13:35:07;1.97;;;1.30;;
3267;SDS011;1646;52.450;13.326;2023-05-07T13:40:07;1.70;;;1.43;;
3267;SDS011;1646;52.450;13.326;2023-05-07T13:45:08;1.40;;;1.30;;
3267;SDS011;1646;52.450;13.326;2023-05-07T13:50:07;1.80;;;1.40;;
3267;SDS011;1646;52.450;13.326;2023-05-07T13:55:09;1.70;;;1.40;;
3267;SDS011;1646;52.450;13.326;2023-05-07T14:00:08;3.27;;;1.30;;
3267;SDS011;1646;52.450;13.326;2023-05-07T14:05:10;2.17;;;1.57;;
3267;SDS011;1646;52.450;13.326;2023-05-07T14:10:11;3.27;;;1.37;;
3267;SDS011;1646;52.450;13.326;2023-05-07T14:15:10;1.47;;;1.37;;
3267;SDS011;1646;52.450;13.326;2023-05-07T14:20:09;2.13;;;1.20;;
3267;SDS011;1646;52.450;13.326;2023-05-07T14:25:08;7.80;;;1.47;;
3267;SDS011;1646;52.450;13.326;2023-05-07T14:30:09;1.77;;;1.60;;
3267;SDS011;1646;52.450;13.326;2023-05-07T14:35:08;1.87;;;1.30;;
3267;SDS011;1646;52.450;13.326;2023-05-07T14:40:07;6.00;;;1.47;;
3267;SDS011;1646;52.450;13.326;2023-05-07T14:45:09;1.60;;;1.50;;
3267;SDS011;1646;52.450;13.326;2023-05-07T14:50:09;5.30;;;1.83;;
3267;SDS011;1646;52.450;13.326;2023-05-07T14:55:07;8.37;;;1.90;;
3267;SDS011;1646;52.450;13.326;2023-05-07T15:00:06;4.93;;;1.50;;
3267;SDS011;1646;52.450;13.326;2023-05-07T15:05:09;1.30;;;1.10;;
3267;SDS011;1646;52.450;13.326;2023-05-07T15:10:08;2.60;;;1.73;;
3267;SDS011;1646;52.450;13.326;2023-05-07T15:15:07;1.50;;;1.40;;
3267;SDS011;1646;52.450;13.326;2023-05-07T15:20:08;4.13;;;1.70;;
3267;SDS011;1646;52.450;13.326;2023-05-07T15:25:07;2.10;;;1.60;;
3267;SDS011;1646;52.450;13.326;2023-05-07T15:30:06;3.20;;;2.70;;
3267;SDS011;1646;52.450;13.326;2023-05-07T15:35:08;2.50;;;1.40;;
3267;SDS011;1646;52.450;13.326;2023-05-07T15:40:07;1.80;;;1.70;;
3267;SDS011;1646;52.450;13.326;2023-05-07T15:45:07;2.17;;;1.53;;
3267;SDS011;1646;52.450;13.326;2023-05-07T15:50:09;3.10;;;1.63;;
3267;SDS011;1646;52.450;13.326;2023-05-07T15:55:08;5.80;;;1.53;;
3267;SDS011;1646;52.450;13.326;2023-05-07T16:00:07;1.70;;;1.60;;
3267;SDS011;1646;52.450;13.326;2023-05-07T16:05:09;2.00;;;1.80;;
3267;SDS011;1646;52.450;13.326;2023-05-07T16:10:09;1.50;;;1.40;;
3267;SDS011;1646;52.450;13.326;2023-05-07T16:15:08;2.77;;;1.80;;
3267;SDS011;1646;52.450;13.326;2023-05-07T16:20:10;2.30;;;1.87;;
3267;SDS011;1646;52.450;13.326;2023-05-07T16:25:10;2.20;;;1.60;;
3267;SDS011;1646;52.450;13.326;2023-05-07T16:30:10;2.23;;;1.63;;
3267;SDS011;1646;52.450;13.326;2023-05-07T16:35:10;4.93;;;1.90;;
3267;SDS011;1646;52.450;13.326;2023-05-07T16:40:09;2.37;;;1.90;;
3267;SDS011;1646;52.450;13.326;2023-05-07T16:45:08;2.27;;;1.83;;
3267;SDS011;1646;52.450;13.326;2023-05-07T16:50:08;5.83;;;1.70;;
3267;SDS011;1646;52.450;13.326;2023-05-07T16:55:08;3.63;;;1.73;;
3267;SDS011;1646;52.450;13.326;2023-05-07T17:00:07;2.87;;;1.70;;
3267;SDS011;1646;52.450;13.326;2023-05-07T17:05:07;2.00;;;1.80;;
3267;SDS011;1646;52.450;13.326;2023-05-07T17:10:07;2.30;;;1.80;;
3267;SDS011;1646;52.450;13.326;2023-05-07T17:15:07;2.77;;;1.30;;
3267;SDS011;1646;52.450;13.326;2023-05-07T17:20:06;1.27;;;1.17;;
3267;SDS011;1646;52.450;13.326;2023-05-07T17:25:07;1.73;;;1.20;;
3267;SDS011;1646;52.450;13.326;2023-05-07T17:30:08;2.20;;;1.37;;
3267;SDS011;1646;52.450;13.326;2023-05-07T17:35:08;3.90;;;2.07;;
3267;SDS011;1646;52.450;13.326;2023-05-07T17:40:08;1.60;;;1.50;;
3267;SDS011;1646;52.450;13.326;2023-05-07T17:45:07;1.50;;;1.40;;
3267;SDS011;1646;52.450;13.326;2023-05-07T17:50:07;1.30;;;1.20;;
3267;SDS011;1646;52.450;13.326;2023-05-07T17:55:08;3.63;;;1.87;;
3267;SDS011;1646;52.450;13.326;2023-05-07T18:00:08;1.97;;;1.47;;
3267;SDS011;1646;52.450;13.326;2023-05-07T18:05:07;2.13;;;1.63;;
3267;SDS011;1646;52.450;13.326;2023-05-07T18:10:06;1.90;;;1.53;;
3267;SDS011;1646;52.450;13.326;2023-05-07T18:15:07;1.23;;;1.00;;
3267;SDS011;1646;52.450;13.326;2023-05-07T18:20:06;2.80;;;2.20;;
3267;SDS011;1646;52.450;13.326;2023-05-07T18:25:07;2.47;;;2.07;;
3267;SDS011;1646;52.450;13.326;2023-05-07T18:30:07;2.10;;;1.50;;
3267;SDS011;1646;52.450;13.326;2023-05-07T18:35:07;2.30;;;2.10;;
3267;SDS011;1646;52.450;13.326;2023-05-07T18:40:06;1.43;;;1.33;;
3267;SDS011;1646;52.450;13.326;2023-05-07T18:45:07;1.60;;;1.50;;
3267;SDS011;1646;52.450;13.326;2023-05-07T18:50:06;1.47;;;1.37;;
3267;SDS011;1646;52.450;13.326;2023-05-07T18:55:06;1.60;;;1.50;;
3267;SDS011;1646;52.450;13.326;2023-05-07T19:00:08;2.33;;;1.57;;
3267;SDS011;1646;52.450;13.326;2023-05-07T19:05:08;2.50;;;1.80;;
3267;SDS011;1646;52.450;13.326;2023-05-07T19:10:07;1.50;;;1.40;;
3267;SDS011;1646;52.450;13.326;2023-05-07T19:15:08;2.30;;;2.10;;
3267;SDS011;1646;52.450;13.326;2023-05-07T19:20:07;3.67;;;1.73;;
3267;SDS011;1646;52.450;13.326;2023-05-07T19:25:06;3.43;;;2.13;;
3267;SDS011;1646;52.450;13.326;2023-05-07T19:30:06;4.27;;;2.40;;
3267;SDS011;1646;52.450;13.326;2023-05-07T19:35:07;2.40;;;2.20;;
3267;SDS011;1646;52.450;13.326;2023-05-07T19:40:06;2.83;;;1.90;;
3267;SDS011;1646;52.450;13.326;2023-05-07T19:45:06;3.27;;;2.40;;
3267;SDS011;1646;52.450;13.326;2023-05-07T19:50:08;3.30;;;2.10;;
3267;SDS011;1646;52.450;13.326;2023-05-07T19:55:07;3.63;;;2.20;;
3267;SDS011;1646;52.450;13.326;2023-05-07T20:00:06;2.33;;;2.10;;
3267;SDS011;1646;52.450;13.326;2023-05-07T20:05:12;1.87;;;1.77;;
3267;SDS011;1646;52.450;13.326;2023-05-07T20:10:11;2.50;;;2.30;;
3267;SDS011;1646;52.450;13.326;2023-05-07T20:15:10;3.30;;;2.33;;
3267;SDS011;1646;52.450;13.326;2023-05-07T20:20:08;3.07;;;2.50;;
3267;SDS011;1646;52.450;13.326;2023-05-07T20:25:09;2.60;;;2.40;;
3267;SDS011;1646;52.450;13.326;2023-05-07T20:30:09;3.60;;;2.90;;
3267;SDS011;1646;52.450;13.326;2023-05-07T20:35:09;4.10;;;3.70;;
3267;SDS011;1646;52.450;13.326;2023-05-07T20:40:08;3.67;;;3.03;;
3267;SDS011;1646;52.450;13.326;2023-05-07T20:45:09;7.40;;;3.77;;
3267;SDS011;1646;52.450;13.326;2023-05-07T20:50:08;3.93;;;3.20;;
3267;SDS011;1646;52.450;13.326;2023-05-07T20:55:07;3.87;;;3.47;;
3267;SDS011;1646;52.450;13.326;2023-05-07T21:00:08;3.87;;;3.57;;
3267;SDS011;1646;52.450;13.326;2023-05-07T21:05:07;4.03;;;2.97;;
3267;SDS011;1646;52.450;13.326;2023-05-07T21:10:06;4.03;;;3.60;;
3267;SDS011;1646;52.450;13.326;2023-05-07T21:15:05;3.50;;;3.20;;
3267;SDS011;1646;52.450;13.326;2023-05-07T21:20:07;4.33;;;3.43;;
3267;SDS011;1646;52.450;13.326;2023-05-07T21:25:07;4.80;;;3.53;;
3267;SDS011;1646;52.450;13.326;2023-05-07T21:30:10;4.30;;;3.30;;
3267;SDS011;1646;52.450;13.326;2023-05-07T21:35:10;3.73;;;3.37;;
3267;SDS011;1646;52.450;13.326;2023-05-07T21:40:09;4.07;;;3.70;;
3267;SDS011;1646;52.450;13.326;2023-05-07T21:45:10;5.97;;;4.00;;
3267;SDS011;1646;52.450;13.326;2023-05-07T21:50:09;3.90;;;3.50;;
3267;SDS011;1646;52.450;13.326;2023-05-07T21:55:08;5.00;;;4.10;;
3267;SDS011;1646;52.450;13.326;2023-05-07T22:00:07;3.70;;;3.40;;
3267;SDS011;1646;52.450;13.326;2023-05-07T22:05:08;6.67;;;3.93;;
3267;SDS011;1646;52.450;13.326;2023-05-07T22:10:07;5.90;;;3.93;;
3267;SDS011;1646;52.450;13.326;2023-05-07T22:15:06;5.53;;;4.50;;
3267;SDS011;1646;52.450;13.326;2023-05-07T22:20:07;4.30;;;3.90;;
3267;SDS011;1646;52.450;13.326;2023-05-07T22:25:07;8.73;;;6.10;;
3267;SDS011;1646;52.450;13.326;2023-05-07T22:30:06;4.23;;;3.83;;
3267;SDS011;1646;52.450;13.326;2023-05-07T22:35:07;5.37;;;4.70;;
3267;SDS011;1646;52.450;13.326;2023-05-07T22:40:06;4.40;;;4.00;;
3267;SDS011;1646;52.450;13.326;2023-05-07T22:45:06;6.83;;;3.90;;
3267;SDS011;1646;52.450;13.326;2023-05-07T22:50:07;6.40;;;4.30;;
3267;SDS011;1646;52.450;13.326;2023-05-07T22:55:06;6.00;;;3.80;;
3267;SDS011;1646;52.450;13.326;2023-05-07T23:00:05;4.73;;;4.23;;
3267;SDS011;1646;52.450;13.326;2023-05-07T23:05:07;7.10;;;4.00;;
3267;SDS011;1646;52.450;13.326;2023-05-07T23:10:05;5.43;;;4.23;;
3267;SDS011;1646;52.450;13.326;2023-05-07T23:15:05;6.70;;;4.63;;
3267;SDS011;1646;52.450;13.326;2023-05-07T23:20:04;5.87;;;4.70;;
3267;SDS011;1646;52.450;13.326;2023-05-07T23:25:05;5.30;;;4.63;;
3267;SDS011;1646;52.450;13.326;2023-05-07T23:30:05;5.10;;;4.60;;
3267;SDS011;1646;52.450;13.326;2023-05-07T23:35:04;6.30;;;4.90;;
3267;SDS011;1646;52.450;13.326;2023-05-07T23:40:05;7.83;;;5.00;;
3267;SDS011;1646;52.450;13.326;2023-05-07T23:45:04;6.60;;;5.20;;
3267;SDS011;1646;52.450;13.326;2023-05-07T23:50:03;5.90;;;4.63;;
3267;SDS011;1646;52.450;13.326;2023-05-07T23:55:04;6.27;;;5.07;;
